Time;durP1;ratioP1;P1;durP2;ratioP2;P2;SDS_P1;SDS_P2;PMS_P1;PMS_P2;Temp;Humidity;BMP_temperature;BMP_pressure;BME280_temperature;BME280_humidity;BME280_pressure;Samples;Min_cycle;Max_cycle;Signal;HPM_P1;HPM_P2
2022/06/17 00:01:23;;;;;;;16.50;2.90;;;;;;;;;;5052420;28;20040;-72
2022/06/17 00:03:53;;;;;;;11.60;2.63;;;;;;;;;;5047669;28;20029;-73
2022/06/17 00:06:25;;;;;;;9.57;2.80;;;;;;;;;;5047774;28;20025;-72
2022/06/17 00:08:53;;;;;;;12.03;2.47;;;;;;;;;;5047544;28;20036;-73
2022/06/17 00:11:28;;;;;;;15.33;3.20;;;;;;;;;;5047317;28;20021;-73
2022/06/17 00:13:54;;;;;;;9.43;2.27;;;;;;;;;;5052696;28;20029;-73
2022/06/17 00:16:22;;;;;;;13.90;2.53;;;;;;;;;;5051787;28;20028;-73
2022/06/17 00:18:49;;;;;;;10.97;2.83;;;;;;;;;;5051509;28;20025;-72
2022/06/17 00:21:24;;;;;;;12.57;2.87;;;;;;;;;;5052350;28;20078;-72
2022/06/17 00:23:51;;;;;;;11.00;2.50;;;;;;;;;;5051224;28;20115;-72
2022/06/17 00:26:18;;;;;;;8.53;2.50;;;;;;;;;;5047400;28;20551;-72
2022/06/17 00:28:45;;;;;;;14.53;4.30;;;;;;;;;;5047581;28;20025;-73
2022/06/17 00:31:12;;;;;;;9.13;2.40;;;;;;;;;;5047487;28;20515;-73
2022/06/17 00:33:39;;;;;;;12.90;2.47;;;;;;;;;;5047496;28;20120;-72
2022/06/17 00:36:07;;;;;;;7.83;2.17;;;;;;;;;;5052389;28;20421;-72
2022/06/17 00:38:36;;;;;;;13.37;2.83;;;;;;;;;;5051877;28;20017;-72
2022/06/17 00:41:11;;;;;;;8.07;1.73;;;;;;;;;;5052280;28;20017;-72
2022/06/17 00:43:40;;;;;;;6.97;1.80;;;;;;;;;;5052137;28;20033;-72
2022/06/17 00:46:25;;;;;;;6.03;1.70;;;;;;;;;;5050809;28;20124;-73
2022/06/17 00:49:03;;;;;;;9.02;2.08;;;;;;;;;;5047150;28;20099;-73
2022/06/17 00:51:34;;;;;;;6.23;1.63;;;;;;;;;;5046890;28;20067;-73
2022/06/17 00:54:08;;;;;;;12.97;2.23;;;;;;;;;;5047349;28;20027;-72
2022/06/17 00:56:35;;;;;;;8.20;2.03;;;;;;;;;;5048838;28;20017;-72
2022/06/17 00:59:07;;;;;;;8.10;2.77;;;;;;;;;;5051845;28;20028;-73
2022/06/17 01:01:41;;;;;;;6.03;1.53;;;;;;;;;;5052265;28;20033;-72
2022/06/17 01:04:09;;;;;;;12.70;2.05;;;;;;;;;;5051910;28;20082;-73
2022/06/17 01:06:38;;;;;;;9.33;2.13;;;;;;;;;;5052179;28;20021;-73
2022/06/17 01:11:52;;;;;;;7.60;1.87;;;;;;;;;;5047107;28;20036;-70
2022/06/17 01:14:20;;;;;;;8.97;1.40;;;;;;;;;;5046904;28;20048;-70
2022/06/17 01:16:48;;;;;;;9.70;1.90;;;;;;;;;;5046880;28;20037;-70
2022/06/17 01:19:39;;;;;;;5.37;1.30;;;;;;;;;;5049603;28;20021;-70
2022/06/17 01:22:24;;;;;;;12.50;1.97;;;;;;;;;;5051890;28;20013;-70
2022/06/17 01:24:52;;;;;;;13.45;1.63;;;;;;;;;;5051929;28;20025;-70
2022/06/17 01:27:20;;;;;;;11.40;1.77;;;;;;;;;;5051894;28;20029;-70
2022/06/17 01:29:47;;;;;;;6.20;1.20;;;;;;;;;;5053233;28;20032;-70
2022/06/17 01:32:13;;;;;;;6.13;1.70;;;;;;;;;;5051175;28;20018;-70
2022/06/17 01:34:40;;;;;;;12.33;2.33;;;;;;;;;;5050591;28;20025;-71
2022/06/17 01:37:08;;;;;;;9.77;1.70;;;;;;;;;;5050450;28;20032;-70
2022/06/17 01:39:35;;;;;;;6.47;1.87;;;;;;;;;;5050288;28;20049;-71
2022/06/17 01:42:02;;;;;;;9.13;1.40;;;;;;;;;;5053969;28;20087;-70
2022/06/17 01:44:35;;;;;;;7.20;1.43;;;;;;;;;;5055490;28;20036;-70
2022/06/17 01:47:04;;;;;;;5.13;1.30;;;;;;;;;;5054760;28;20104;-70
2022/06/17 01:49:38;;;;;;;6.70;1.70;;;;;;;;;;5054952;28;20025;-70
2022/06/17 01:52:08;;;;;;;8.57;1.70;;;;;;;;;;5054557;28;20028;-70
2022/06/17 01:54:57;;;;;;;7.60;1.50;;;;;;;;;;5050077;28;20459;-71
2022/06/17 01:57:29;;;;;;;8.60;1.47;;;;;;;;;;5050112;28;20033;-70
2022/06/17 01:59:58;;;;;;;3.23;1.13;;;;;;;;;;5050293;28;20036;-70
2022/06/17 02:02:25;;;;;;;8.53;1.60;;;;;;;;;;5049923;28;20048;-70
2022/06/17 02:04:57;;;;;;;12.40;2.03;;;;;;;;;;5054884;28;20483;-70
2022/06/17 02:07:23;;;;;;;4.57;1.30;;;;;;;;;;5054730;28;20048;-70
2022/06/17 02:09:50;;;;;;;9.97;2.03;;;;;;;;;;5054992;28;20024;-70
2022/06/17 02:12:18;;;;;;;6.77;1.97;;;;;;;;;;5054854;28;20013;-70
2022/06/17 02:14:46;;;;;;;8.97;1.30;;;;;;;;;;5054537;28;20021;-70
2022/06/17 02:17:13;;;;;;;8.53;1.63;;;;;;;;;;5049606;28;20379;-70
2022/06/17 02:19:41;;;;;;;8.77;1.90;;;;;;;;;;5049468;28;20033;-70
2022/06/17 02:22:08;;;;;;;8.20;1.60;;;;;;;;;;5049461;28;20379;-70
2022/06/17 02:24:35;;;;;;;8.67;3.10;;;;;;;;;;5049642;28;20382;-70
2022/06/17 02:27:03;;;;;;;8.50;2.00;;;;;;;;;;5054491;28;20585;-70
2022/06/17 02:29:32;;;;;;;7.97;1.93;;;;;;;;;;5054485;28;20017;-70
2022/06/17 02:31:59;;;;;;;11.23;2.10;;;;;;;;;;5054673;28;20485;-70
2022/06/17 02:34:27;;;;;;;10.83;2.60;;;;;;;;;;5054472;28;20031;-70
2022/06/17 02:36:54;;;;;;;8.53;2.47;;;;;;;;;;5054290;28;20053;-70
2022/06/17 02:39:21;;;;;;;13.07;2.50;;;;;;;;;;5049249;28;20114;-70
2022/06/17 02:41:48;;;;;;;18.83;4.60;;;;;;;;;;5049161;28;20025;-70
2022/06/17 02:44:24;;;;;;;15.43;3.23;;;;;;;;;;5048450;28;20025;-70
2022/06/17 02:46:53;;;;;;;7.43;2.00;;;;;;;;;;5048711;28;20025;-70
2022/06/17 02:49:22;;;;;;;8.37;2.57;;;;;;;;;;5054113;28;20079;-70
2022/06/17 02:51:49;;;;;;;10.73;2.80;;;;;;;;;;5053873;28;20033;-70
2022/06/17 02:54:17;;;;;;;11.30;2.33;;;;;;;;;;5054178;28;20025;-70
2022/06/17 02:56:45;;;;;;;9.03;2.27;;;;;;;;;;5054143;28;20092;-71
2022/06/17 02:59:28;;;;;;;12.93;2.17;;;;;;;;;;5053799;28;20075;-70
2022/06/17 03:02:00;;;;;;;9.50;2.90;;;;;;;;;;5048206;28;20070;-70
2022/06/17 03:04:29;;;;;;;12.33;2.70;;;;;;;;;;5048933;28;20029;-70
2022/06/17 03:06:56;;;;;;;10.00;2.60;;;;;;;;;;5048842;28;20056;-70
2022/06/17 03:09:24;;;;;;;10.80;2.60;;;;;;;;;;5049291;28;20033;-70
2022/06/17 03:11:55;;;;;;;8.70;1.73;;;;;;;;;;5053716;28;20053;-70
2022/06/17 03:14:23;;;;;;;8.53;2.17;;;;;;;;;;5053655;28;20518;-70
2022/06/17 03:16:59;;;;;;;14.17;2.50;;;;;;;;;;5053042;28;20079;-70
2022/06/17 03:19:27;;;;;;;5.30;1.80;;;;;;;;;;5053408;28;20032;-70
2022/06/17 03:21:54;;;;;;;16.17;3.13;;;;;;;;;;5052121;28;20021;-70
2022/06/17 03:24:26;;;;;;;6.83;2.70;;;;;;;;;;5048585;28;20037;-70
2022/06/17 03:26:58;;;;;;;16.60;3.37;;;;;;;;;;5048554;28;20020;-70
2022/06/17 03:29:26;;;;;;;12.77;3.23;;;;;;;;;;5048477;28;20096;-70
2022/06/17 03:31:58;;;;;;;10.20;1.93;;;;;;;;;;5049343;28;20020;-69
2022/06/17 03:34:28;;;;;;;14.73;2.60;;;;;;;;;;5052879;28;20029;-70
2022/06/17 03:37:02;;;;;;;14.43;3.00;;;;;;;;;;5052904;28;20383;-70
2022/06/17 03:39:37;;;;;;;10.87;2.87;;;;;;;;;;5052969;28;20116;-70
2022/06/17 03:42:04;;;;;;;9.37;2.10;;;;;;;;;;5052986;28;20028;-70
2022/06/17 03:44:43;;;;;;;15.50;3.53;;;;;;;;;;5050180;28;20399;-70
2022/06/17 03:47:15;;;;;;;12.20;2.60;;;;;;;;;;5047858;28;20437;-70
2022/06/17 03:49:49;;;;;;;9.10;1.73;;;;;;;;;;5047903;28;20036;-70
2022/06/17 03:52:33;;;;;;;8.45;1.85;;;;;;;;;;5047455;28;20043;-70
2022/06/17 03:55:00;;;;;;;14.00;3.33;;;;;;;;;;5050607;28;20029;-70
2022/06/17 03:57:28;;;;;;;9.03;3.53;;;;;;;;;;5052392;28;20021;-70
2022/06/17 03:59:55;;;;;;;16.13;3.03;;;;;;;;;;5053034;28;20051;-70
2022/06/17 04:02:26;;;;;;;11.50;3.53;;;;;;;;;;5052059;28;20029;-70
2022/06/17 04:04:54;;;;;;;9.20;2.90;;;;;;;;;;5052905;28;20442;-70
2022/06/17 04:07:20;;;;;;;12.37;2.87;;;;;;;;;;5049474;28;20376;-70
2022/06/17 04:09:48;;;;;;;8.17;2.73;;;;;;;;;;5047758;28;20017;-70
2022/06/17 04:12:19;;;;;;;14.70;3.23;;;;;;;;;;5047386;28;20025;-70
2022/06/17 04:14:56;;;;;;;13.93;2.40;;;;;;;;;;5047563;28;20104;-70
2022/06/17 04:17:33;;;;;;;14.00;3.17;;;;;;;;;;5050820;28;20037;-70
2022/06/17 04:20:18;;;;;;;22.17;3.40;;;;;;;;;;5052661;28;20468;-69
2022/06/17 04:22:46;;;;;;;15.35;3.08;;;;;;;;;;5051909;28;20033;-70
2022/06/17 04:25:19;;;;;;;13.43;3.80;;;;;;;;;;5052758;28;20100;-70
2022/06/17 04:27:58;;;;;;;14.57;3.20;;;;;;;;;;5052437;28;20017;-70
2022/06/17 04:30:34;;;;;;;16.10;2.77;;;;;;;;;;5046341;28;20039;-70
2022/06/17 04:33:11;;;;;;;19.47;3.63;;;;;;;;;;5047006;28;20383;-70
2022/06/17 04:35:38;;;;;;;12.53;4.17;;;;;;;;;;5047193;28;20029;-70
2022/06/17 04:38:05;;;;;;;12.27;2.80;;;;;;;;;;5047005;28;20510;-70
2022/06/17 04:40:40;;;;;;;18.93;3.03;;;;;;;;;;5052393;28;20102;-70
2022/06/17 04:43:14;;;;;;;6.03;1.93;;;;;;;;;;5052307;28;20037;-69
2022/06/17 04:45:52;;;;;;;12.82;3.05;;;;;;;;;;5051988;28;20028;-70
2022/06/17 04:48:19;;;;;;;14.23;3.37;;;;;;;;;;5052433;28;20021;-69
2022/06/17 04:50:46;;;;;;;26.77;5.33;;;;;;;;;;5050785;28;20104;-70
2022/06/17 04:53:12;;;;;;;15.67;4.27;;;;;;;;;;5045949;28;20086;-70
2022/06/17 04:55:43;;;;;;;9.63;3.30;;;;;;;;;;5047199;28;20025;-69
2022/06/17 04:58:15;;;;;;;14.60;3.03;;;;;;;;;;5047183;28;20017;-70
2022/06/17 05:00:45;;;;;;;12.60;3.23;;;;;;;;;;5048228;28;20029;-69
2022/06/17 05:03:12;;;;;;;19.40;3.50;;;;;;;;;;5051928;28;20110;-69
2022/06/17 05:05:40;;;;;;;16.63;3.37;;;;;;;;;;5055432;28;20486;-69
2022/06/17 05:08:16;;;;;;;16.00;3.43;;;;;;;;;;5056377;28;20417;-69
2022/06/17 05:10:45;;;;;;;14.43;3.20;;;;;;;;;;5056103;28;20025;-69
2022/06/17 05:13:16;;;;;;;14.13;2.50;;;;;;;;;;5054384;28;20036;-69
2022/06/17 05:15:43;;;;;;;10.30;3.40;;;;;;;;;;5051010;28;20711;-69
2022/06/17 05:18:10;;;;;;;15.90;3.67;;;;;;;;;;5050959;28;20365;-69
2022/06/17 05:20:36;;;;;;;15.37;3.60;;;;;;;;;;5050677;28;20108;-70
2022/06/17 05:23:04;;;;;;;16.30;3.70;;;;;;;;;;5051493;28;20033;-69
2022/06/17 05:25:33;;;;;;;15.03;4.27;;;;;;;;;;5055881;28;20083;-70
2022/06/17 05:28:00;;;;;;;14.80;3.70;;;;;;;;;;5055314;28;20044;-69
2022/06/17 05:30:28;;;;;;;11.57;3.30;;;;;;;;;;5055744;28;20036;-69
2022/06/17 05:32:55;;;;;;;14.17;3.30;;;;;;;;;;5055734;28;20383;-69
2022/06/17 05:35:23;;;;;;;15.30;4.33;;;;;;;;;;5054153;28;20060;-69
2022/06/17 05:37:49;;;;;;;10.77;3.30;;;;;;;;;;5050064;28;20025;-70
2022/06/17 05:40:16;;;;;;;16.07;3.23;;;;;;;;;;5050507;28;20040;-70
2022/06/17 05:42:44;;;;;;;16.50;3.43;;;;;;;;;;5050457;28;20040;-69
2022/06/17 05:45:18;;;;;;;10.00;3.00;;;;;;;;;;5051072;28;20029;-70
2022/06/17 05:47:44;;;;;;;12.97;4.17;;;;;;;;;;5055438;28;20060;-70
2022/06/17 05:50:12;;;;;;;10.43;3.27;;;;;;;;;;5055413;28;20053;-69
2022/06/17 05:52:52;;;;;;;17.93;3.50;;;;;;;;;;5054579;28;20028;-69
2022/06/17 05:55:19;;;;;;;9.47;2.47;;;;;;;;;;5055306;28;20032;-69
2022/06/17 05:57:45;;;;;;;12.97;3.40;;;;;;;;;;5053286;28;20029;-69
2022/06/17 06:00:13;;;;;;;9.10;3.00;;;;;;;;;;5050177;28;20499;-70
2022/06/17 06:02:39;;;;;;;14.27;3.43;;;;;;;;;;5050012;28;20044;-69
2022/06/17 06:05:07;;;;;;;9.03;3.10;;;;;;;;;;5049705;28;20025;-69
2022/06/17 06:07:34;;;;;;;15.90;3.57;;;;;;;;;;5051141;28;20046;-69
2022/06/17 06:10:01;;;;;;;15.17;3.67;;;;;;;;;;5054793;28;20387;-70
2022/06/17 06:12:53;;;;;;;19.93;3.80;;;;;;;;;;5055045;28;20091;-69
2022/06/17 06:15:14;;;;;;;19.53;4.73;;;;;;;;;;5054066;28;20395;-69
2022/06/17 06:17:41;;;;;;;13.20;3.30;;;;;;;;;;5054065;28;20025;-69
2022/06/17 06:20:08;;;;;;;18.13;3.20;;;;;;;;;;5052541;28;20044;-70
2022/06/17 06:22:34;;;;;;;12.13;3.00;;;;;;;;;;5049724;28;20044;-69
2022/06/17 06:25:01;;;;;;;10.53;2.90;;;;;;;;;;5049817;28;20032;-69
2022/06/17 06:27:28;;;;;;;13.50;3.80;;;;;;;;;;5049492;28;20029;-69
2022/06/17 06:29:55;;;;;;;15.73;3.20;;;;;;;;;;5050883;28;20021;-69
2022/06/17 06:32:21;;;;;;;11.90;3.03;;;;;;;;;;5054325;28;20096;-69
2022/06/17 06:34:48;;;;;;;15.00;3.13;;;;;;;;;;5054603;28;20051;-69
2022/06/17 06:37:15;;;;;;;15.37;3.37;;;;;;;;;;5054375;28;20025;-69
2022/06/17 06:39:42;;;;;;;11.30;3.93;;;;;;;;;;5054556;28;20024;-69
2022/06/17 06:42:09;;;;;;;16.60;3.10;;;;;;;;;;5052301;28;20033;-70
2022/06/17 06:44:35;;;;;;;15.10;3.93;;;;;;;;;;5048985;28;20064;-69
2022/06/17 06:47:02;;;;;;;17.97;3.67;;;;;;;;;;5049453;28;20025;-69
2022/06/17 06:49:29;;;;;;;9.47;3.73;;;;;;;;;;5048766;28;20067;-69
2022/06/17 06:51:55;;;;;;;7.63;2.93;;;;;;;;;;5050190;28;20099;-70
2022/06/17 06:54:22;;;;;;;11.37;3.50;;;;;;;;;;5054147;28;20025;-69
2022/06/17 06:56:49;;;;;;;9.40;2.83;;;;;;;;;;5054147;28;20478;-69
2022/06/17 06:59:16;;;;;;;11.07;3.37;;;;;;;;;;5054229;28;20025;-69
2022/06/17 07:01:42;;;;;;;9.20;3.07;;;;;;;;;;5053815;28;20033;-69
2022/06/17 07:04:09;;;;;;;14.43;3.00;;;;;;;;;;5052493;28;20073;-69
2022/06/17 07:06:36;;;;;;;9.27;2.97;;;;;;;;;;5048816;28;20029;-69
2022/06/17 07:09:03;;;;;;;11.03;3.27;;;;;;;;;;5048403;28;20036;-70
2022/06/17 07:11:30;;;;;;;15.77;3.50;;;;;;;;;;5048796;28;20083;-69
2022/06/17 07:13:56;;;;;;;9.80;2.80;;;;;;;;;;5049288;28;20025;-69
2022/06/17 07:16:23;;;;;;;15.87;4.10;;;;;;;;;;5053713;28;20036;-69
2022/06/17 07:18:50;;;;;;;13.53;3.20;;;;;;;;;;5053553;28;20025;-69
2022/06/17 07:21:16;;;;;;;9.47;2.50;;;;;;;;;;5053370;28;20028;-69
2022/06/17 07:23:45;;;;;;;7.73;2.80;;;;;;;;;;5053611;28;20029;-69
2022/06/17 07:26:20;;;;;;;13.47;3.17;;;;;;;;;;5052516;28;20371;-69
2022/06/17 07:28:46;;;;;;;;;;;;;;;;;;5048672;28;20032;-69
2022/06/17 07:31:13;;;;;;;9.87;3.13;;;;;;;;;;5048603;28;20318;-69
2022/06/17 07:33:39;;;;;;;10.87;2.60;;;;;;;;;;5048088;28;20052;-69
2022/06/17 07:36:07;;;;;;;10.83;3.73;;;;;;;;;;5048472;28;20477;-69
2022/06/17 07:41:23;;;;;;;15.03;3.73;;;;;;;;;;5053519;28;20498;-69
2022/06/17 07:43:51;;;;;;;15.13;5.50;;;;;;;;;;5052740;28;20035;-69
2022/06/17 07:46:18;;;;;;;22.83;7.53;;;;;;;;;;5053389;28;20017;-69
2022/06/17 07:48:45;;;;;;;16.97;7.30;;;;;;;;;;5051942;28;20435;-69
2022/06/17 07:51:11;;;;;;;20.87;7.83;;;;;;;;;;5047967;28;20032;-69
2022/06/17 07:53:42;;;;;;;18.27;7.73;;;;;;;;;;5048105;28;20017;-69
2022/06/17 07:56:13;;;;;;;19.40;7.13;;;;;;;;;;5048030;28;20028;-69
2022/06/17 07:58:39;;;;;;;12.63;5.37;;;;;;;;;;5048677;28;20107;-69
2022/06/17 08:01:06;;;;;;;15.50;5.60;;;;;;;;;;5052548;28;20025;-69
2022/06/17 08:03:34;;;;;;;14.60;5.43;;;;;;;;;;5052697;28;20056;-69
2022/06/17 08:06:02;;;;;;;17.17;5.63;;;;;;;;;;5052911;28;20021;-69
2022/06/17 08:08:30;;;;;;;20.40;4.50;;;;;;;;;;5052728;28;20040;-69
2022/06/17 08:10:58;;;;;;;11.10;4.93;;;;;;;;;;5050861;28;20024;-69
2022/06/17 08:13:25;;;;;;;15.13;6.03;;;;;;;;;;5047263;28;20017;-69
2022/06/17 08:15:54;;;;;;;16.97;4.50;;;;;;;;;;5047383;28;20487;-69
2022/06/17 08:18:21;;;;;;;16.57;3.93;;;;;;;;;;5047740;28;20021;-69
2022/06/17 08:20:48;;;;;;;14.87;3.37;;;;;;;;;;5048751;28;20028;-69
2022/06/17 08:23:15;;;;;;;9.93;3.20;;;;;;;;;;5052476;28;20379;-69
2022/06/17 08:25:42;;;;;;;8.70;2.87;;;;;;;;;;5052484;28;20029;-69
2022/06/17 08:28:10;;;;;;;8.50;3.63;;;;;;;;;;5051976;28;20037;-69
2022/06/17 08:30:41;;;;;;;17.30;3.83;;;;;;;;;;5052238;28;20379;-69
2022/06/17 08:33:08;;;;;;;10.40;3.80;;;;;;;;;;5050822;28;20049;-69
2022/06/17 08:35:37;;;;;;;12.87;3.97;;;;;;;;;;5047252;28;20025;-69
2022/06/17 08:38:05;;;;;;;14.97;4.10;;;;;;;;;;5047316;28;20020;-69
2022/06/17 08:41:03;;;;;;;12.10;3.80;;;;;;;;;;5047095;28;20079;-69
2022/06/17 08:43:39;;;;;;;14.13;3.50;;;;;;;;;;5036499;28;20052;-69
2022/06/17 08:46:15;;;;;;;10.90;3.83;;;;;;;;;;5052392;28;20454;-69
2022/06/17 08:49:11;;;;;;;10.73;3.27;;;;;;;;;;5051774;28;20379;-69
2022/06/17 08:51:56;;;;;;;10.20;3.60;;;;;;;;;;5047431;28;20041;-69
2022/06/17 08:54:35;;;;;;;17.92;3.20;;;;;;;;;;5051836;28;20017;-69
2022/06/17 08:57:05;;;;;;;9.50;3.00;;;;;;;;;;5046908;28;20092;-69
2022/06/17 08:59:50;;;;;;;9.93;2.67;;;;;;;;;;5047109;28;20044;-69
2022/06/17 09:02:24;;;;;;;10.05;2.92;;;;;;;;;;5046690;28;20033;-69
2022/06/17 09:05:09;;;;;;;18.50;3.73;;;;;;;;;;5047327;28;20029;-68
2022/06/17 09:07:42;;;;;;;14.63;4.20;;;;;;;;;;5052201;28;20253;-69
2022/06/17 09:10:09;;;;;;;9.57;3.37;;;;;;;;;;5051995;28;20025;-68
2022/06/17 09:12:45;;;;;;;11.67;3.27;;;;;;;;;;5051854;28;20018;-69
2022/06/17 09:15:17;;;;;;;12.73;3.33;;;;;;;;;;5052264;28;20361;-68
2022/06/17 09:17:44;;;;;;;9.13;3.33;;;;;;;;;;5049691;28;20033;-69
2022/06/17 09:20:13;;;;;;;17.83;4.27;;;;;;;;;;5046998;28;20068;-69
2022/06/17 09:22:43;;;;;;;14.07;3.57;;;;;;;;;;5046393;28;20036;-69
2022/06/17 09:25:12;;;;;;;12.83;4.60;;;;;;;;;;5046948;28;20036;-69
2022/06/17 09:27:40;;;;;;;12.30;3.80;;;;;;;;;;5048307;28;20071;-68
2022/06/17 09:30:15;;;;;;;9.70;3.03;;;;;;;;;;5052174;28;20100;-69
2022/06/17 09:33:07;;;;;;;14.65;2.88;;;;;;;;;;5052086;28;20021;-68
2022/06/17 09:35:40;;;;;;;11.80;3.10;;;;;;;;;;5050462;28;20406;-68
2022/06/17 09:38:28;;;;;;;11.93;3.20;;;;;;;;;;5051837;28;20100;-69
2022/06/17 09:41:18;;;;;;;10.27;3.30;;;;;;;;;;5047468;28;20048;-68
2022/06/17 09:43:51;;;;;;;12.10;4.10;;;;;;;;;;5043592;28;20052;-69
2022/06/17 09:46:34;;;;;;;12.93;3.50;;;;;;;;;;5046931;28;20110;-68
2022/06/17 09:49:03;;;;;;;14.87;3.50;;;;;;;;;;5046223;28;20025;-68
2022/06/17 09:51:43;;;;;;;10.23;3.27;;;;;;;;;;5054058;28;20447;-68
2022/06/17 09:54:25;;;;;;;8.53;2.60;;;;;;;;;;5055162;28;20017;-69
2022/06/17 09:56:58;;;;;;;8.87;3.17;;;;;;;;;;5054817;28;20035;-68
2022/06/17 09:59:33;;;;;;;10.97;3.03;;;;;;;;;;5055198;28;20036;-69
2022/06/17 10:02:05;;;;;;;10.93;3.33;;;;;;;;;;5053543;28;20029;-68
2022/06/17 10:04:31;;;;;;;14.17;4.43;;;;;;;;;;5049674;28;20037;-69
2022/06/17 10:07:14;;;;;;;11.40;2.70;;;;;;;;;;5049675;28;20021;-68
2022/06/17 10:09:50;;;;;;;8.57;3.13;;;;;;;;;;5050029;28;20104;-68
2022/06/17 10:12:32;;;;;;;12.37;2.87;;;;;;;;;;5052073;28;20071;-69
2022/06/17 10:15:08;;;;;;;8.73;2.67;;;;;;;;;;5054550;28;20074;-69
2022/06/17 10:20:44;;;;;;;11.33;3.47;;;;;;;;;;5054844;28;20040;-68
2022/06/17 10:23:18;;;;;;;13.15;4.05;;;;;;;;;;5054737;28;20033;-68
2022/06/17 10:25:50;;;;;;;12.30;2.77;;;;;;;;;;5049689;28;20025;-68
2022/06/17 10:28:29;;;;;;;18.47;4.57;;;;;;;;;;5049689;28;20467;-69
2022/06/17 10:30:59;;;;;;;12.67;3.77;;;;;;;;;;5049250;28;20084;-69
2022/06/17 10:33:26;;;;;;;12.50;2.80;;;;;;;;;;5049522;28;20057;-69
2022/06/17 10:35:53;;;;;;;10.07;4.13;;;;;;;;;;5054475;28;20250;-68
2022/06/17 10:38:25;;;;;;;12.03;3.13;;;;;;;;;;5054415;28;20254;-68
2022/06/17 10:40:52;;;;;;;15.47;3.63;;;;;;;;;;5054337;28;20246;-68
2022/06/17 10:43:21;;;;;;;9.07;2.80;;;;;;;;;;5054156;28;20327;-68
2022/06/17 10:45:48;;;;;;;13.97;4.07;;;;;;;;;;5053879;28;20027;-69
2022/06/17 10:48:33;;;;;;;8.33;3.33;;;;;;;;;;5049309;28;20269;-68
2022/06/17 10:51:03;;;;;;;12.82;3.03;;;;;;;;;;5049085;28;20327;-68
2022/06/17 10:53:38;;;;;;;9.13;3.40;;;;;;;;;;5049319;28;20403;-68
2022/06/17 10:56:09;;;;;;;17.15;3.70;;;;;;;;;;5050120;28;20258;-68
2022/06/17 10:58:36;;;;;;;10.80;3.20;;;;;;;;;;5054036;28;20375;-68
2022/06/17 11:01:07;;;;;;;9.77;2.80;;;;;;;;;;5053932;28;20028;-68
2022/06/17 11:03:35;;;;;;;9.37;2.67;;;;;;;;;;5053960;28;20282;-69
2022/06/17 11:06:13;;;;;;;15.13;4.23;;;;;;;;;;5053679;28;20254;-68
2022/06/17 11:08:55;;;;;;;11.10;3.17;;;;;;;;;;5051781;28;20350;-69
2022/06/17 11:14:20;;;;;;;7.37;3.27;;;;;;;;;;5048954;28;20328;-69
2022/06/17 11:16:47;;;;;;;9.50;2.60;;;;;;;;;;5048491;28;20679;-68
2022/06/17 11:19:15;;;;;;;11.10;4.33;;;;;;;;;;5051712;28;20246;-69
2022/06/17 11:21:45;;;;;;;8.33;3.03;;;;;;;;;;5053625;28;20669;-69
2022/06/17 11:24:31;;;;;;;12.40;3.30;;;;;;;;;;5053034;28;20768;-69
2022/06/17 11:27:17;;;;;;;16.23;3.67;;;;;;;;;;5053677;28;20668;-68
2022/06/17 11:29:45;;;;;;;25.25;5.20;;;;;;;;;;5053762;28;20250;-68
2022/06/17 11:32:32;;;;;;;13.57;3.50;;;;;;;;;;5048244;28;20047;-68
2022/06/17 11:35:22;;;;;;;14.43;3.73;;;;;;;;;;5048250;28;20744;-68
2022/06/17 11:37:50;;;;;;;4.93;2.40;;;;;;;;;;5044585;28;20772;-68
2022/06/17 11:40:19;;;;;;;7.30;2.70;;;;;;;;;;5048916;28;20258;-68
2022/06/17 11:42:48;;;;;;;14.57;2.67;;;;;;;;;;5053351;28;20290;-68
2022/06/17 11:45:19;;;;;;;12.27;2.87;;;;;;;;;;5053212;28;20270;-69
2022/06/17 11:47:49;;;;;;;8.40;2.90;;;;;;;;;;5053073;28;20260;-68
2022/06/17 11:50:28;;;;;;;15.60;3.50;;;;;;;;;;5052811;28;20666;-68
2022/06/17 11:53:01;;;;;;;14.80;3.60;;;;;;;;;;5051474;28;20290;-68
2022/06/17 11:55:29;;;;;;;9.20;2.80;;;;;;;;;;5047107;28;20262;-68
2022/06/17 11:57:56;;;;;;;9.63;3.10;;;;;;;;;;5048017;28;20312;-68
2022/06/17 12:00:25;;;;;;;9.90;2.87;;;;;;;;;;5048083;28;20281;-68
2022/06/17 12:02:56;;;;;;;12.87;2.40;;;;;;;;;;5048796;28;20343;-69
2022/06/17 12:05:24;;;;;;;11.17;3.03;;;;;;;;;;5052894;28;20262;-68
2022/06/17 12:08:00;;;;;;;7.43;2.47;;;;;;;;;;5052690;28;20250;-68
2022/06/17 12:10:27;;;;;;;9.20;3.10;;;;;;;;;;5052892;28;20416;-68
2022/06/17 12:12:57;;;;;;;9.27;2.60;;;;;;;;;;5052392;28;20253;-68
2022/06/17 12:15:30;;;;;;;10.93;3.13;;;;;;;;;;5050432;28;20294;-68
2022/06/17 12:17:58;;;;;;;7.93;2.20;;;;;;;;;;5047713;28;20247;-68
2022/06/17 12:20:34;;;;;;;10.83;2.17;;;;;;;;;;5047184;28;20270;-68
2022/06/17 12:23:04;;;;;;;12.93;2.77;;;;;;;;;;5047630;28;20363;-68
2022/06/17 12:25:40;;;;;;;11.20;2.80;;;;;;;;;;5049496;28;20268;-68
2022/06/17 12:28:20;;;;;;;13.80;4.57;;;;;;;;;;5052645;28;20758;-69
2022/06/17 12:31:09;;;;;;;9.73;3.10;;;;;;;;;;5052334;28;20269;-68
2022/06/17 12:33:42;;;;;;;16.23;3.83;;;;;;;;;;5052440;28;20258;-68
2022/06/17 12:36:17;;;;;;;12.07;2.70;;;;;;;;;;5052628;28;20250;-68
2022/06/17 12:39:02;;;;;;;9.52;3.80;;;;;;;;;;5047755;28;20262;-68
2022/06/17 12:41:32;;;;;;;14.30;2.90;;;;;;;;;;5047223;28;20082;-68
2022/06/17 12:44:20;;;;;;;9.47;3.17;;;;;;;;;;5047139;28;20072;-68
2022/06/17 12:46:56;;;;;;;12.27;2.50;;;;;;;;;;5047454;28;20315;-69
2022/06/17 12:55:18;;;;;;;8.63;3.30;;;;;;;;;;5052310;28;20264;-68
2022/06/17 12:57:56;;;;;;;11.13;4.07;;;;;;;;;;5051892;28;20265;-68
2022/06/17 13:00:36;;;;;;;21.93;4.47;;;;;;;;;;5048298;28;20258;-68
2022/06/17 13:03:12;;;;;;;14.57;5.93;;;;;;;;;;5047303;28;20285;-69
2022/06/17 13:05:43;;;;;;;14.87;4.90;;;;;;;;;;5047204;28;20337;-68
2022/06/17 13:08:28;;;;;;;13.87;4.73;;;;;;;;;;5047189;28;20301;-68
2022/06/17 13:11:12;;;;;;;12.52;3.80;;;;;;;;;;5051677;28;20250;-69
2022/06/17 13:13:38;;;;;;;14.77;4.07;;;;;;;;;;5051977;28;20548;-68
2022/06/17 13:16:09;;;;;;;13.07;4.30;;;;;;;;;;5051857;28;20258;-68
2022/06/17 13:18:46;;;;;;;16.37;5.07;;;;;;;;;;5052088;28;20596;-69
2022/06/17 13:21:23;;;;;;;12.37;4.10;;;;;;;;;;5051135;28;20262;-68
2022/06/17 13:23:50;;;;;;;11.63;3.77;;;;;;;;;;5027082;28;20294;-68
2022/06/17 13:26:22;;;;;;;16.57;5.87;;;;;;;;;;5029735;28;20512;-70
2022/06/17 13:28:51;;;;;;;19.00;4.77;;;;;;;;;;5030792;28;20736;-71
2022/06/17 13:31:32;;;;;;;14.53;5.47;;;;;;;;;;5031436;28;20250;-70
2022/06/17 13:34:05;;;;;;;11.87;4.03;;;;;;;;;;5035882;28;20416;-70
2022/06/17 13:36:38;;;;;;;15.40;4.27;;;;;;;;;;5035675;28;20346;-70
2022/06/17 13:39:11;;;;;;;10.60;3.53;;;;;;;;;;5035609;28;20021;-71
2022/06/17 13:41:45;;;;;;;21.87;5.00;;;;;;;;;;5035741;28;20025;-71
2022/06/17 13:44:30;;;;;;;16.00;4.13;;;;;;;;;;5032824;28;20040;-71
2022/06/17 13:47:02;;;;;;;17.60;5.60;;;;;;;;;;5030482;28;20496;-71
2022/06/17 13:49:37;;;;;;;13.70;4.00;;;;;;;;;;5042344;28;20025;-71
2022/06/17 13:52:13;;;;;;;15.50;3.60;;;;;;;;;;5050692;28;20431;-71
2022/06/17 13:54:52;;;;;;;16.07;4.57;;;;;;;;;;5053362;28;20031;-71
2022/06/17 13:57:23;;;;;;;15.43;4.90;;;;;;;;;;5054249;28;20032;-71
2022/06/17 13:59:55;;;;;;;15.93;4.43;;;;;;;;;;5053946;28;20048;-71
2022/06/17 14:02:21;;;;;;;13.13;4.00;;;;;;;;;;5053462;28;20039;-71
2022/06/17 14:05:00;;;;;;;20.97;4.00;;;;;;;;;;5054568;28;20067;-71
2022/06/17 14:07:56;;;;;;;16.23;4.10;;;;;;;;;;5049585;28;20096;-72
2022/06/17 14:10:32;;;;;;;21.43;4.53;;;;;;;;;;5048162;28;20243;-72
2022/06/17 14:13:00;;;;;;;24.43;5.00;;;;;;;;;;5049455;28;20040;-71
2022/06/17 14:15:38;;;;;;;14.90;4.10;;;;;;;;;;5050299;28;20111;-71
2022/06/17 14:18:07;;;;;;;16.97;4.20;;;;;;;;;;5054336;28;20383;-71
2022/06/17 14:20:36;;;;;;;15.03;5.27;;;;;;;;;;5053701;28;20116;-71
2022/06/17 14:23:06;;;;;;;16.17;4.73;;;;;;;;;;5053878;28;20143;-71
2022/06/17 14:25:50;;;;;;;16.20;5.07;;;;;;;;;;5054121;28;20029;-71
2022/06/17 14:28:35;;;;;;;13.65;4.15;;;;;;;;;;5052474;28;20036;-72
2022/06/17 14:31:13;;;;;;;14.05;3.85;;;;;;;;;;5049650;28;20460;-71
2022/06/17 14:33:42;;;;;;;13.10;3.43;;;;;;;;;;5049102;28;20886;-71
2022/06/17 14:36:10;;;;;;;12.63;3.83;;;;;;;;;;5048624;28;20102;-71
2022/06/17 14:38:41;;;;;;;12.60;3.00;;;;;;;;;;5052143;28;20087;-72
2022/06/17 14:44:20;;;;;;;16.57;3.70;;;;;;;;;;5054287;28;20142;-71
2022/06/17 14:47:05;;;;;;;15.13;4.03;;;;;;;;;;5050282;28;20430;-72
2022/06/17 14:49:50;;;;;;;14.00;3.88;;;;;;;;;;5053268;28;20480;-72
2022/06/17 14:52:26;;;;;;;18.60;4.35;;;;;;;;;;5049282;28;20470;-72
2022/06/17 14:55:15;;;;;;;17.93;3.90;;;;;;;;;;5049127;28;20055;-72
2022/06/17 14:58:00;;;;;;;11.87;3.77;;;;;;;;;;5048989;28;20029;-72
2022/06/17 15:00:27;;;;;;;;;;;;;;;;;;5051415;28;20024;-72
2022/06/17 15:02:55;;;;;;;8.93;3.60;;;;;;;;;;5053544;28;19912;-72
2022/06/17 15:05:23;;;;;;;7.67;2.47;;;;;;;;;;5034177;28;20034;-71
2022/06/17 15:07:52;;;;;;;11.33;2.90;;;;;;;;;;5034097;28;20500;-72
2022/06/17 15:10:21;;;;;;;11.40;2.90;;;;;;;;;;5034109;28;20056;-70
2022/06/17 15:12:50;;;;;;;18.33;3.27;;;;;;;;;;5049995;28;20044;-70
2022/06/17 15:15:19;;;;;;;16.47;3.83;;;;;;;;;;5033234;28;20516;-70
2022/06/17 15:17:53;;;;;;;16.43;3.83;;;;;;;;;;5046993;28;20025;-70
2022/06/17 15:20:27;;;;;;;14.35;4.45;;;;;;;;;;5048833;28;20032;-70